createdAt,value
2022-11-25T00:01:14.096Z,31.55
2022-11-25T00:03:42.393Z,30.88
2022-11-25T00:06:32.147Z,24.13
2022-11-25T00:09:01.776Z,29.15
2022-11-25T00:11:28.604Z,27.98
2022-11-25T00:13:56.432Z,26.20
2022-11-25T00:16:26.400Z,24.73
2022-11-25T00:18:54.567Z,25.45
2022-11-25T00:21:31.268Z,26.13
2022-11-25T00:24:00.491Z,21.63
2022-11-25T00:26:28.846Z,23.67
2022-11-25T00:28:58.262Z,24.75
2022-11-25T00:31:30.275Z,20.60
2022-11-25T00:33:57.305Z,22.95
2022-11-25T00:36:31.045Z,27.63
2022-11-25T00:39:00.749Z,25.35
2022-11-25T00:41:47.832Z,26.17
2022-11-25T00:44:35.881Z,28.33
2022-11-25T00:47:15.282Z,23.67
2022-11-25T00:49:46.106Z,22.23
2022-11-25T00:52:18.625Z,26.77
2022-11-25T00:54:47.621Z,27.75
2022-11-25T00:57:15.423Z,24.90
2022-11-25T00:59:42.188Z,23.70
2022-11-25T01:02:10.875Z,24.92
2022-11-25T01:04:38.064Z,25.17
2022-11-25T01:07:05.185Z,24.58
2022-11-25T01:09:32.136Z,27.17
2022-11-25T01:11:59.011Z,26.52
2022-11-25T01:14:25.894Z,25.98
2022-11-25T01:16:52.697Z,23.45
2022-11-25T01:19:20.221Z,24.42
2022-11-25T01:21:47.204Z,27.02
2022-11-25T01:24:15.446Z,25.90
2022-11-25T01:26:42.536Z,27.52
2022-11-25T01:29:16.882Z,25.90
2022-11-25T01:31:43.892Z,23.75
2022-11-25T01:34:18.726Z,26.63
2022-11-25T01:36:45.942Z,28.23
2022-11-25T01:39:19.839Z,25.55
2022-11-25T01:41:47.369Z,23.38
2022-11-25T01:44:19.831Z,25.13
2022-11-25T01:46:52.581Z,22.35
2022-11-25T01:49:34.809Z,23.30
2022-11-25T01:52:13.240Z,24.80
2022-11-25T01:55:01.888Z,24.75
2022-11-25T01:57:34.962Z,21.30
2022-11-25T02:00:05.698Z,25.67
2022-11-25T02:05:01.640Z,21.88
2022-11-25T02:07:34.882Z,23.75
2022-11-25T02:10:03.581Z,17.33
2022-11-25T02:12:31.050Z,20.05
2022-11-25T02:14:59.546Z,18.92
2022-11-25T02:17:26.263Z,22.73
2022-11-25T02:19:59.272Z,18.38
2022-11-25T02:23:10.078Z,22.52
2022-11-25T02:25:39.621Z,22.90
2022-11-25T02:28:06.253Z,21.35
2022-11-25T02:30:33.509Z,20.88
2022-11-25T02:33:00.965Z,17.33
2022-11-25T02:35:32.148Z,22.25
2022-11-25T02:38:13.351Z,18.88
2022-11-25T02:41:04.555Z,22.42
2022-11-25T02:43:31.246Z,19.42
2022-11-25T02:46:00.469Z,17.42
2022-11-25T02:49:00.838Z,20.52
2022-11-25T02:51:20.496Z,19.52
2022-11-25T02:53:47.490Z,19.15
2022-11-25T02:56:16.004Z,17.95
2022-11-25T02:58:42.862Z,21.23
2022-11-25T03:01:09.726Z,24.10
2022-11-25T03:03:37.865Z,23.60
2022-11-25T03:06:04.496Z,21.08
2022-11-25T03:08:31.219Z,21.80
2022-11-25T03:10:57.754Z,18.58
2022-11-25T03:13:24.464Z,18.67
2022-11-25T03:15:51.026Z,19.55
2022-11-25T03:18:17.639Z,17.77
2022-11-25T03:20:44.141Z,22.85
2022-11-25T03:23:10.704Z,21.20
2022-11-25T03:25:37.257Z,19.92
2022-11-25T03:28:04.763Z,19.77
2022-11-25T03:30:31.623Z,16.05
2022-11-25T03:32:58.197Z,20.85
2022-11-25T03:35:24.726Z,19.30
2022-11-25T03:37:51.349Z,18.20
2022-11-25T03:40:18.262Z,17.98
2022-11-25T03:42:45.101Z,20.40
2022-11-25T03:45:13.614Z,19.23
2022-11-25T03:47:44.213Z,16.85
2022-11-25T03:50:13.118Z,15.43
2022-11-25T03:52:40.111Z,20.63
2022-11-25T03:55:07.372Z,20.00
2022-11-25T03:57:34.143Z,17.40
2022-11-25T04:00:01.999Z,18.58
2022-11-25T04:02:28.658Z,19.35
2022-11-25T04:04:55.243Z,19.50
2022-11-25T04:07:22.072Z,17.10
2022-11-25T04:09:48.656Z,20.85
2022-11-25T04:12:34.080Z,18.95
2022-11-25T04:15:00.579Z,15.55
2022-11-25T04:17:27.113Z,19.50
2022-11-25T04:19:53.721Z,18.10
2022-11-25T04:22:20.295Z,20.48
2022-11-25T04:24:46.888Z,18.23
2022-11-25T04:27:13.451Z,21.42
2022-11-25T04:29:40.044Z,20.42
2022-11-25T04:32:06.687Z,14.90
2022-11-25T04:34:33.415Z,19.95
2022-11-25T04:37:00.081Z,22.55
2022-11-25T04:39:26.594Z,23.13
2022-11-25T04:42:16.152Z,17.73
2022-11-25T04:44:51.960Z,16.95
2022-11-25T04:47:29.810Z,18.95
2022-11-25T04:49:56.458Z,21.67
2022-11-25T04:52:23.285Z,16.15
2022-11-25T04:54:49.854Z,16.23
2022-11-25T04:57:17.020Z,18.25
2022-11-25T04:59:43.890Z,16.55
2022-11-25T05:02:17.088Z,19.42
2022-11-25T05:04:45.397Z,17.95
2022-11-25T05:07:12.482Z,19.63
2022-11-25T05:09:39.379Z,18.63
2022-11-25T05:12:08.025Z,15.75
2022-11-25T05:14:35.896Z,17.10
2022-11-25T05:17:07.010Z,12.95
2022-11-25T05:19:35.933Z,14.32
2022-11-25T05:22:02.541Z,13.38
2022-11-25T05:24:29.087Z,16.15
2022-11-25T05:26:55.799Z,17.52
2022-11-25T05:29:22.473Z,14.95
2022-11-25T05:31:49.049Z,19.23
2022-11-25T05:34:15.827Z,15.40
2022-11-25T05:36:42.312Z,14.65
2022-11-25T05:39:08.895Z,15.45
2022-11-25T05:41:35.467Z,16.33
2022-11-25T05:44:02.143Z,17.65
2022-11-25T05:46:29.049Z,15.07
2022-11-25T05:48:56.678Z,11.63
2022-11-25T05:51:24.398Z,17.92
2022-11-25T05:54:00.830Z,14.65
2022-11-25T05:56:27.450Z,16.15
2022-11-25T05:58:55.009Z,15.20
2022-11-25T06:01:23.353Z,15.85
2022-11-25T06:03:50.095Z,14.95
2022-11-25T06:06:17.623Z,14.25
2022-11-25T06:08:44.665Z,18.30
2022-11-25T06:11:13.769Z,15.30
2022-11-25T06:13:41.290Z,14.75
2022-11-25T06:16:12.948Z,16.83
2022-11-25T06:18:39.869Z,13.10
2022-11-25T06:21:07.684Z,14.43
2022-11-25T06:23:35.208Z,14.98
2022-11-25T06:26:05.846Z,16.55
2022-11-25T06:31:08.927Z,20.35
2022-11-25T06:33:35.679Z,16.77
2022-11-25T06:36:04.116Z,15.13
2022-11-25T06:38:31.261Z,24.05
2022-11-25T06:41:05.509Z,22.88
2022-11-25T06:43:32.793Z,19.42
2022-11-25T06:46:07.689Z,20.23
2022-11-25T06:48:35.257Z,21.65
2022-11-25T06:51:05.329Z,19.15
2022-11-25T06:53:33.106Z,19.73
2022-11-25T06:56:05.648Z,22.60
2022-11-25T06:58:36.385Z,21.15
2022-11-25T07:01:05.803Z,26.98
2022-11-25T07:03:32.690Z,21.08
2022-11-25T07:05:59.919Z,22.55
2022-11-25T07:08:32.305Z,18.33
2022-11-25T07:11:13.271Z,22.23
2022-11-25T07:13:39.975Z,19.65
2022-11-25T07:16:07.080Z,20.13
2022-11-25T07:18:36.724Z,21.27
2022-11-25T07:21:11.372Z,26.35
2022-11-25T07:23:38.333Z,25.95
2022-11-25T07:26:08.010Z,28.98
2022-11-25T07:28:35.819Z,25.23
2022-11-25T07:31:27.590Z,26.45
2022-11-25T07:34:02.869Z,31.83
2022-11-25T07:36:30.526Z,25.38
2022-11-25T07:39:02.716Z,23.15
2022-11-25T07:41:31.382Z,27.42
2022-11-25T07:44:00.595Z,21.65
2022-11-25T07:46:31.313Z,24.95
2022-11-25T07:51:31.967Z,23.17
2022-11-25T07:54:00.721Z,24.70
2022-11-25T07:56:28.422Z,24.88
2022-11-25T07:58:56.435Z,27.90
2022-11-25T08:01:23.330Z,25.42
2022-11-25T08:03:51.163Z,22.00
2022-11-25T08:06:26.065Z,23.05
2022-11-25T08:08:55.424Z,21.77
2022-11-25T08:11:28.118Z,22.58
2022-11-25T08:13:55.086Z,22.92
2022-11-25T08:16:24.099Z,25.48
2022-11-25T08:18:51.156Z,29.83
2022-11-25T08:21:18.167Z,24.50
2022-11-25T08:23:48.633Z,25.63
2022-11-25T08:26:21.843Z,23.25
2022-11-25T08:28:48.780Z,23.20
2022-11-25T08:31:23.753Z,29.10
2022-11-25T08:33:51.322Z,23.48
2022-11-25T08:36:18.583Z,30.85
2022-11-25T08:38:47.497Z,28.05
2022-11-25T08:41:26.123Z,28.08
2022-11-25T08:43:52.839Z,22.17
2022-11-25T08:46:22.306Z,27.00
2022-11-25T08:48:49.217Z,19.15
2022-11-25T08:51:19.746Z,23.48
2022-11-25T08:53:47.462Z,21.27
2022-11-25T08:56:14.922Z,22.95
2022-11-25T08:58:41.437Z,23.40
2022-11-25T09:01:09.054Z,23.65
2022-11-25T09:03:39.638Z,24.77
2022-11-25T09:06:07.652Z,24.20
2022-11-25T09:08:34.432Z,26.00
2022-11-25T09:11:01.069Z,22.52
2022-11-25T09:13:27.781Z,25.33
2022-11-25T09:15:54.532Z,23.90
2022-11-25T09:18:26.004Z,19.27
2022-11-25T09:20:53.865Z,20.60
2022-11-25T09:23:23.287Z,18.10
2022-11-25T09:25:56.720Z,24.75
2022-11-25T09:28:24.606Z,22.40
2022-11-25T09:30:52.193Z,19.70
2022-11-25T09:33:19.861Z,26.35
2022-11-25T09:35:47.407Z,18.45
2022-11-25T09:38:14.491Z,20.27
2022-11-25T09:40:57.175Z,23.88
2022-11-25T09:44:02.442Z,22.00
2022-11-25T09:46:47.282Z,19.52
2022-11-25T09:49:15.003Z,20.15
2022-11-25T09:52:01.951Z,19.13
2022-11-25T09:54:39.979Z,20.50
2022-11-25T09:57:27.032Z,23.75
2022-11-25T10:00:10.984Z,18.65
2022-11-25T10:03:01.256Z,19.17
2022-11-25T10:05:34.630Z,17.10
2022-11-25T10:08:09.294Z,18.52
2022-11-25T10:10:46.471Z,18.58
2022-11-25T10:13:20.435Z,22.13
2022-11-25T10:15:50.355Z,20.35
2022-11-25T10:18:29.849Z,13.63
2022-11-25T10:20:56.417Z,18.35
2022-11-25T10:23:33.978Z,16.88
2022-11-25T10:26:13.387Z,19.67
2022-11-25T10:28:44.481Z,21.05
2022-11-25T10:31:18.585Z,20.52
2022-11-25T10:33:46.745Z,19.90
2022-11-25T10:36:36.673Z,18.23
2022-11-25T10:39:11.321Z,13.90
2022-11-25T10:41:46.657Z,21.35
2022-11-25T10:44:27.108Z,19.50
2022-11-25T10:47:13.981Z,15.27
2022-11-25T10:50:08.387Z,15.80
2022-11-25T10:52:44.412Z,18.25
2022-11-25T10:55:15.172Z,17.90
2022-11-25T10:57:43.011Z,18.27
2022-11-25T11:00:34.852Z,18.38
2022-11-25T11:03:14.529Z,16.10
2022-11-25T11:05:49.425Z,15.03
2022-11-25T11:08:28.126Z,21.02
2022-11-25T11:11:15.970Z,22.10
2022-11-25T11:13:42.764Z,16.70
2022-11-25T11:16:31.921Z,20.67
2022-11-25T11:18:58.741Z,21.00
2022-11-25T11:21:34.524Z,18.20
2022-11-25T11:24:03.494Z,13.52
2022-11-25T11:26:35.860Z,17.98
2022-11-25T11:29:15.208Z,17.63
2022-11-25T11:31:51.445Z,21.17
2022-11-25T11:34:42.929Z,16.80
2022-11-25T11:37:48.162Z,16.77
2022-11-25T11:40:37.249Z,15.65
2022-11-25T11:43:06.415Z,15.45
2022-11-25T11:45:51.618Z,20.15
2022-11-25T11:48:51.537Z,18.00
2022-11-25T11:51:34.638Z,15.02
2022-11-25T11:54:14.051Z,16.23
2022-11-25T11:56:55.282Z,13.68
2022-11-25T11:59:34.830Z,12.95
2022-11-25T12:02:14.563Z,15.07
2022-11-25T12:04:47.350Z,15.77
2022-11-25T12:07:21.284Z,21.45
2022-11-25T12:10:29.608Z,15.25
2022-11-25T12:13:17.478Z,14.48
2022-11-25T12:16:01.732Z,15.07
2022-11-25T12:19:00.767Z,15.93
2022-11-25T12:21:55.196Z,17.95
2022-11-25T12:24:26.897Z,13.35
2022-11-25T12:27:00.743Z,16.17
2022-11-25T12:29:31.424Z,15.85
2022-11-25T12:34:44.524Z,22.92
2022-11-25T12:37:18.016Z,20.55
2022-11-25T12:40:07.539Z,17.10
2022-11-25T12:42:39.307Z,17.50
2022-11-25T12:45:22.406Z,19.52
2022-11-25T12:47:49.276Z,21.73
2022-11-25T12:50:20.825Z,18.75
2022-11-25T12:53:02.589Z,17.77
2022-11-25T12:55:32.028Z,15.68
2022-11-25T12:58:20.213Z,12.32
2022-11-25T13:01:11.348Z,16.77
2022-11-25T13:04:15.665Z,20.15
2022-11-25T13:06:59.516Z,15.90
2022-11-25T13:09:54.052Z,13.95
2022-11-25T13:12:54.941Z,19.50
2022-11-25T13:15:29.575Z,20.02
2022-11-25T13:18:04.040Z,15.93
2022-11-25T13:20:30.627Z,18.50
2022-11-25T13:23:08.020Z,20.00
2022-11-25T13:25:36.220Z,14.63
2022-11-25T13:28:05.163Z,18.40
2022-11-25T13:30:31.718Z,15.90
2022-11-25T13:33:19.287Z,18.77
2022-11-25T13:35:52.390Z,18.55
2022-11-25T13:38:35.215Z,20.13
2022-11-25T13:41:23.943Z,20.15
2022-11-25T13:44:07.509Z,15.35
2022-11-25T13:46:42.597Z,17.90
2022-11-25T13:49:51.280Z,16.08
2022-11-25T13:52:17.751Z,14.55
2022-11-25T13:54:50.259Z,15.25
2022-11-25T13:57:32.580Z,14.20
2022-11-25T14:00:01.647Z,14.32
2022-11-25T14:02:45.717Z,14.70
2022-11-25T14:05:43.154Z,13.80
2022-11-25T14:08:24.101Z,16.13
2022-11-25T14:11:11.578Z,15.77
2022-11-25T14:13:57.726Z,13.80
2022-11-25T14:16:53.071Z,14.73
2022-11-25T14:19:57.463Z,12.00
2022-11-25T14:23:03.928Z,16.73
2022-11-25T14:25:56.580Z,14.10
2022-11-25T14:29:15.791Z,14.10
2022-11-25T14:31:49.101Z,12.18
2022-11-25T14:34:32.907Z,14.18
2022-11-25T14:37:13.739Z,12.40
2022-11-25T14:42:43.931Z,15.27
2022-11-25T14:45:30.842Z,12.07
2022-11-25T14:47:58.062Z,19.63
2022-11-25T14:50:40.770Z,14.55
2022-11-25T14:53:14.776Z,16.10
2022-11-25T14:55:55.670Z,12.05
2022-11-25T14:58:24.301Z,12.90
2022-11-25T15:01:02.663Z,14.90
2022-11-25T15:03:29.468Z,13.55
2022-11-25T15:08:44.578Z,13.68
2022-11-25T15:11:20.008Z,16.27
2022-11-25T15:13:55.017Z,14.93
2022-11-25T15:16:25.186Z,10.98
2022-11-25T15:18:52.715Z,14.60
2022-11-25T15:21:27.444Z,15.45
2022-11-25T15:23:54.050Z,16.10
2022-11-25T15:26:32.070Z,10.73
2022-11-25T15:29:10.242Z,16.25
2022-11-25T15:31:38.952Z,11.18
2022-11-25T15:34:10.592Z,12.32
2022-11-25T15:36:37.242Z,13.00
2022-11-25T15:39:17.701Z,12.52
2022-11-25T15:41:47.213Z,13.70
2022-11-25T15:44:23.924Z,11.68
2022-11-25T15:47:00.719Z,16.70
2022-11-25T15:49:28.224Z,14.98
2022-11-25T15:52:06.124Z,12.25
2022-11-25T15:54:40.261Z,17.48
2022-11-25T15:57:21.763Z,19.85
2022-11-25T15:59:55.701Z,19.60
2022-11-25T16:02:43.534Z,16.00
2022-11-25T16:05:15.402Z,14.05
2022-11-25T16:07:50.823Z,16.73
2022-11-25T16:10:22.263Z,15.20
2022-11-25T16:13:20.907Z,10.25
2022-11-25T16:15:59.672Z,14.65
2022-11-25T16:18:56.200Z,17.08
2022-11-25T16:21:24.398Z,16.58
2022-11-25T16:23:56.684Z,13.57
2022-11-25T16:26:33.595Z,14.75
2022-11-25T16:29:02.320Z,15.73
2022-11-25T16:31:28.888Z,13.05
2022-11-25T16:34:09.618Z,14.27
2022-11-25T16:39:02.457Z,17.15
2022-11-25T16:41:29.935Z,14.48
2022-11-25T16:44:00.866Z,15.20
2022-11-25T16:46:30.177Z,19.42
2022-11-25T16:48:56.813Z,18.75
2022-11-25T16:51:25.095Z,16.42
2022-11-25T16:53:51.620Z,18.20
2022-11-25T16:56:24.868Z,16.58
2022-11-25T16:58:51.442Z,21.23
2022-11-25T17:01:20.135Z,16.88
2022-11-25T17:03:46.808Z,15.73
2022-11-25T17:06:21.453Z,19.50
2022-11-25T17:08:48.670Z,17.45
2022-11-25T17:11:22.065Z,18.33
2022-11-25T17:13:51.271Z,14.57
2022-11-25T17:16:20.956Z,21.90
2022-11-25T17:18:48.768Z,19.93
2022-11-25T17:21:17.026Z,17.08
2022-11-25T17:23:45.127Z,21.15
2022-11-25T17:26:20.182Z,15.77
2022-11-25T17:29:11.462Z,19.45
2022-11-25T17:31:38.943Z,15.18
2022-11-25T17:34:05.783Z,14.75
2022-11-25T17:36:32.572Z,15.70
2022-11-25T17:38:59.299Z,16.60
2022-11-25T17:41:28.686Z,20.33
2022-11-25T17:43:55.691Z,18.55
2022-11-25T17:46:22.311Z,22.30
2022-11-25T17:48:49.013Z,22.92
2022-11-25T17:51:15.840Z,21.10
2022-11-25T17:53:42.461Z,13.95
2022-11-25T17:56:25.923Z,22.20
2022-11-25T17:58:53.153Z,16.77
2022-11-25T18:01:20.304Z,17.65
2022-11-25T18:03:49.421Z,18.45
2022-11-25T18:06:16.289Z,15.07
2022-11-25T18:08:43.190Z,19.52
2022-11-25T18:11:17.490Z,22.60
2022-11-25T18:13:45.896Z,18.83
2022-11-25T18:16:14.843Z,18.20
2022-11-25T18:18:41.694Z,16.98
2022-11-25T18:21:09.288Z,27.35
2022-11-25T18:23:36.144Z,24.25
2022-11-25T18:26:02.867Z,22.75
2022-11-25T18:28:31.070Z,22.45
2022-11-25T18:31:02.736Z,20.27
2022-11-25T18:33:30.135Z,20.40
2022-11-25T18:35:57.246Z,22.25
2022-11-25T18:38:24.013Z,21.33
2022-11-25T18:40:53.845Z,22.60
2022-11-25T18:43:25.014Z,25.30
2022-11-25T18:45:53.493Z,19.90
2022-11-25T18:48:23.168Z,20.45
2022-11-25T18:50:51.799Z,20.95
2022-11-25T18:53:18.441Z,19.17
2022-11-25T18:55:46.454Z,21.00
2022-11-25T18:58:19.687Z,21.33
2022-11-25T19:00:51.147Z,20.25
2022-11-25T19:03:21.859Z,17.92
2022-11-25T19:08:18.850Z,17.88
2022-11-25T19:10:47.040Z,25.97
2022-11-25T19:13:36.754Z,20.98
2022-11-25T19:16:07.534Z,20.92
2022-11-25T19:18:35.099Z,25.48
2022-11-25T19:21:01.848Z,26.85
2022-11-25T19:23:29.069Z,23.15
2022-11-25T19:26:02.054Z,18.50
2022-11-25T19:28:30.553Z,21.95
2022-11-25T19:31:03.226Z,24.52
2022-11-25T19:33:36.729Z,23.23
2022-11-25T19:36:04.066Z,20.05
2022-11-25T19:38:32.853Z,20.02
2022-11-25T19:40:59.501Z,16.08
2022-11-25T19:43:29.544Z,23.17
2022-11-25T19:45:57.657Z,20.58
2022-11-25T19:48:27.210Z,16.85
2022-11-25T19:50:59.548Z,20.85
2022-11-25T19:53:33.210Z,26.35
2022-11-25T19:56:04.009Z,21.23
2022-11-25T19:58:31.138Z,15.38
2022-11-25T20:01:01.884Z,14.88
2022-11-25T20:03:31.134Z,17.08
2022-11-25T20:05:58.440Z,16.98
2022-11-25T20:08:27.718Z,16.42
2022-11-25T20:10:55.242Z,19.25
2022-11-25T20:13:26.241Z,14.75
2022-11-25T20:15:54.883Z,18.58
2022-11-25T20:18:24.223Z,22.35
2022-11-25T20:20:58.371Z,22.38
2022-11-25T20:23:29.718Z,18.85
2022-11-25T20:25:56.321Z,20.75
2022-11-25T20:28:25.697Z,15.80
2022-11-25T20:30:53.508Z,17.35
2022-11-25T20:33:24.257Z,21.75
2022-11-25T20:35:53.634Z,17.35
2022-11-25T20:38:28.780Z,17.58
2022-11-25T20:40:57.729Z,18.73
2022-11-25T20:43:39.578Z,21.67
2022-11-25T20:46:12.316Z,17.13
2022-11-25T20:48:39.174Z,14.32
2022-11-25T20:51:17.440Z,20.60
2022-11-25T20:53:50.873Z,19.08
2022-11-25T20:56:21.667Z,19.88
2022-11-25T21:01:22.962Z,18.63
2022-11-25T21:03:50.869Z,21.63
2022-11-25T21:06:40.965Z,21.58
2022-11-25T21:09:20.645Z,17.92
2022-11-25T21:11:49.831Z,20.73
2022-11-25T21:14:20.289Z,20.25
2022-11-25T21:16:49.214Z,20.85
2022-11-25T21:19:23.336Z,21.27
2022-11-25T21:21:55.518Z,21.90
2022-11-25T21:24:43.798Z,15.25
2022-11-25T21:27:17.044Z,21.17
2022-11-25T21:29:49.245Z,22.02
2022-11-25T21:32:24.574Z,21.20
2022-11-25T21:34:52.045Z,20.00
2022-11-25T21:37:28.720Z,23.80
2022-11-25T21:39:58.023Z,15.07
2022-11-25T21:42:25.399Z,18.25
2022-11-25T21:44:53.446Z,20.25
2022-11-25T21:47:23.892Z,22.92
2022-11-25T21:49:51.256Z,20.50
2022-11-25T21:52:19.083Z,17.10
2022-11-25T21:54:46.077Z,20.02
2022-11-25T21:57:26.278Z,21.23
2022-11-25T21:59:53.051Z,21.90
2022-11-25T22:02:24.975Z,14.52
2022-11-25T22:04:52.364Z,14.73
2022-11-25T22:07:19.043Z,20.08
2022-11-25T22:09:45.723Z,19.73
2022-11-25T22:12:32.616Z,21.13
2022-11-25T22:15:06.856Z,20.33
2022-11-25T22:17:33.609Z,20.42
2022-11-25T22:20:00.209Z,21.30
2022-11-25T22:22:27.751Z,19.67
2022-11-25T22:24:54.337Z,20.85
2022-11-25T22:27:24.239Z,24.35
2022-11-25T22:29:51.799Z,22.30
2022-11-25T22:32:18.992Z,16.45
2022-11-25T22:34:46.002Z,14.57
2022-11-25T22:37:22.710Z,23.27
2022-11-25T22:39:49.582Z,16.17
2022-11-25T22:42:28.299Z,18.40
2022-11-25T22:44:57.346Z,21.83
2022-11-25T22:47:42.671Z,16.58
2022-11-25T22:50:20.206Z,17.95
2022-11-25T22:52:46.946Z,19.27
2022-11-25T22:55:19.923Z,17.13
2022-11-25T22:57:47.110Z,17.98
2022-11-25T23:00:21.202Z,17.38
2022-11-25T23:02:48.903Z,17.17
2022-11-25T23:05:36.449Z,14.07
2022-11-25T23:08:12.403Z,18.10
2022-11-25T23:10:39.068Z,19.33
2022-11-25T23:13:05.627Z,14.40
2022-11-25T23:15:32.236Z,15.68
2022-11-25T23:18:00.769Z,17.58
2022-11-25T23:20:31.711Z,19.35
2022-11-25T23:23:02.584Z,15.55
2022-11-25T23:25:29.089Z,17.10
2022-11-25T23:27:55.709Z,14.43
2022-11-25T23:30:23.364Z,19.58
2022-11-25T23:32:52.981Z,20.02
2022-11-25T23:35:25.124Z,17.90
2022-11-25T23:37:56.528Z,16.67
2022-11-25T23:40:24.567Z,15.95
2022-11-25T23:42:51.525Z,21.50
2022-11-25T23:45:20.895Z,14.65
2022-11-25T23:47:50.022Z,15.23
2022-11-25T23:50:30.223Z,17.48
2022-11-25T23:53:01.254Z,21.80
2022-11-25T23:55:32.289Z,20.75
2022-11-25T23:58:01.470Z,17.67
